createdAt,value
2022-09-28T00:01:39.723Z,78.19
2022-09-28T00:05:02.423Z,79.39
2022-09-28T00:08:24.025Z,79.41
2022-09-28T00:11:46.138Z,80.80
2022-09-28T00:15:08.683Z,80.94
2022-09-28T00:18:30.499Z,80.16
2022-09-28T00:21:52.082Z,80.16
2022-09-28T00:25:13.717Z,78.69
2022-09-28T00:28:35.271Z,78.32
2022-09-28T00:32:04.334Z,78.36
2022-09-28T00:35:25.888Z,78.41
2022-09-28T00:38:47.445Z,78.33
2022-09-28T00:42:18.384Z,78.41
2022-09-28T00:45:40.046Z,79.01
2022-09-28T00:49:11.184Z,79.53
2022-09-28T00:52:50.939Z,79.58
2022-09-28T00:56:19.087Z,79.50
2022-09-28T00:59:43.272Z,79.28
2022-09-28T01:03:04.828Z,79.50
2022-09-28T01:06:31.033Z,79.15
2022-09-28T01:09:54.207Z,80.48
2022-09-28T01:13:17.648Z,80.14
2022-09-28T01:16:49.421Z,79.50
2022-09-28T01:20:40.956Z,78.71
2022-09-28T01:24:25.876Z,78.53
2022-09-28T01:28:12.117Z,77.05
2022-09-28T01:31:36.713Z,76.61
2022-09-28T01:35:28.026Z,75.94
2022-09-28T01:38:55.247Z,76.00
2022-09-28T01:42:29.537Z,75.25
2022-09-28T01:45:55.718Z,74.92
2022-09-28T01:49:17.362Z,75.67
2022-09-28T01:52:56.185Z,75.21
2022-09-28T01:56:25.016Z,75.69
2022-09-28T01:59:55.962Z,75.15
2022-09-28T02:03:29.995Z,75.41
2022-09-28T02:07:22.503Z,75.63
2022-09-28T02:10:49.865Z,75.90
2022-09-28T02:14:14.639Z,75.88
2022-09-28T02:17:38.653Z,75.66
2022-09-28T02:21:07.370Z,75.47
2022-09-28T02:24:31.623Z,75.29
2022-09-28T02:28:00.399Z,74.90
2022-09-28T02:31:22.031Z,75.22
2022-09-28T02:34:46.031Z,75.48
2022-09-28T02:38:10.299Z,75.25
2022-09-28T02:42:08.917Z,75.61
2022-09-28T02:46:17.960Z,75.37
2022-09-28T02:50:15.874Z,75.69
2022-09-28T02:54:08.785Z,75.19
2022-09-28T02:57:56.015Z,75.36
2022-09-28T03:01:27.209Z,75.00
2022-09-28T03:05:14.954Z,75.10
2022-09-28T03:08:44.988Z,73.39
2022-09-28T03:12:14.219Z,75.56
2022-09-28T03:15:39.020Z,75.34
2022-09-28T03:19:00.587Z,72.05
2022-09-28T03:22:22.097Z,70.76
2022-09-28T03:25:43.645Z,72.69
2022-09-28T03:29:08.092Z,70.57
2022-09-28T03:32:32.685Z,70.81
2022-09-28T03:35:54.365Z,71.04
2022-09-28T03:39:15.941Z,71.61
2022-09-28T03:42:37.908Z,71.68
2022-09-28T03:46:01.343Z,72.98
2022-09-28T03:49:22.918Z,71.83
2022-09-28T03:52:47.613Z,71.77
2022-09-28T03:56:12.338Z,71.70
2022-09-28T03:59:37.481Z,71.46
2022-09-28T04:02:58.982Z,72.76
2022-09-28T04:06:20.645Z,72.26
2022-09-28T04:09:42.174Z,72.20
2022-09-28T04:13:05.959Z,70.94
2022-09-28T04:16:27.827Z,70.73
2022-09-28T04:19:51.755Z,71.00
2022-09-28T04:23:16.054Z,71.29
2022-09-28T04:26:38.231Z,71.31
2022-09-28T04:30:01.977Z,72.30
2022-09-28T04:33:25.635Z,71.57
2022-09-28T04:36:52.449Z,70.96
2022-09-28T04:40:16.401Z,71.49
2022-09-28T04:43:42.954Z,70.73
2022-09-28T04:47:07.020Z,71.05
2022-09-28T04:50:28.552Z,72.10
2022-09-28T04:53:52.806Z,71.95
2022-09-28T04:57:14.385Z,72.29
2022-09-28T05:00:35.935Z,73.23
2022-09-28T05:03:57.447Z,73.15
2022-09-28T05:07:21.193Z,71.32
2022-09-28T05:10:43.120Z,72.78
2022-09-28T05:14:09.640Z,72.81
2022-09-28T05:17:33.403Z,72.31
2022-09-28T05:20:57.301Z,72.63
2022-09-28T05:24:18.843Z,72.65
2022-09-28T05:27:42.632Z,72.95
2022-09-28T05:31:07.325Z,73.65
2022-09-28T05:34:29.489Z,73.35
2022-09-28T05:37:54.919Z,73.59
2022-09-28T05:41:18.770Z,73.38
2022-09-28T05:44:40.289Z,73.17
2022-09-28T05:48:02.100Z,71.05
2022-09-28T05:51:25.402Z,73.67
2022-09-28T05:54:47.230Z,74.14
2022-09-28T05:58:08.834Z,71.45
2022-09-28T06:01:30.448Z,71.08
2022-09-28T06:04:52.041Z,71.70
2022-09-28T06:08:13.700Z,71.82
2022-09-28T06:11:35.230Z,71.86
2022-09-28T06:14:58.676Z,69.14
2022-09-28T06:18:20.468Z,70.10
2022-09-28T06:21:44.541Z,70.04
2022-09-28T06:25:06.866Z,69.87
2022-09-28T06:28:31.136Z,69.43
2022-09-28T06:31:52.690Z,66.32
2022-09-28T06:35:15.507Z,64.46
2022-09-28T06:38:39.399Z,68.94
2022-09-28T06:42:04.373Z,61.73
2022-09-28T06:45:32.024Z,62.06
2022-09-28T06:48:55.909Z,65.02
2022-09-28T06:52:17.381Z,61.34
2022-09-28T06:55:40.639Z,64.82
2022-09-28T06:59:02.130Z,62.29
2022-09-28T07:02:23.800Z,61.77
2022-09-28T07:05:54.029Z,62.99
2022-09-28T07:09:30.979Z,59.90
2022-09-28T07:12:56.865Z,59.24
2022-09-28T07:16:25.883Z,60.86
2022-09-28T07:19:52.777Z,60.37
2022-09-28T07:23:19.221Z,60.17
2022-09-28T07:26:41.297Z,59.34
2022-09-28T07:30:05.235Z,57.76
2022-09-28T07:33:32.573Z,58.49
2022-09-28T07:36:58.847Z,55.81
2022-09-28T07:40:38.927Z,57.52
2022-09-28T07:44:06.532Z,53.66
2022-09-28T07:47:33.938Z,53.23
2022-09-28T07:50:57.442Z,55.15
2022-09-28T07:54:18.994Z,55.96
2022-09-28T07:57:48.430Z,55.87
2022-09-28T08:01:11.905Z,56.71
2022-09-28T08:04:33.547Z,57.40
2022-09-28T08:07:57.785Z,58.97
2022-09-28T08:11:19.466Z,57.52
2022-09-28T08:14:43.426Z,57.68
2022-09-28T08:18:05.497Z,56.99
2022-09-28T08:21:58.970Z,58.58
2022-09-28T08:25:21.089Z,58.77
2022-09-28T08:28:44.956Z,58.42
2022-09-28T08:32:08.294Z,58.43
2022-09-28T08:35:29.838Z,59.60
2022-09-28T08:38:56.729Z,58.59
2022-09-28T08:42:48.567Z,58.54
2022-09-28T08:46:12.626Z,57.47
2022-09-28T08:49:42.155Z,56.35
2022-09-28T08:53:25.951Z,57.36
2022-09-28T08:56:49.635Z,59.04
2022-09-28T09:00:34.395Z,56.80
2022-09-28T09:03:58.941Z,57.18
2022-09-28T09:07:37.709Z,56.93
2022-09-28T09:11:25.600Z,57.81
2022-09-28T09:15:11.422Z,56.07
2022-09-28T09:18:53.657Z,56.43
2022-09-28T09:22:37.614Z,56.56
2022-09-28T09:26:14.197Z,57.46
2022-09-28T09:29:45.970Z,56.12
2022-09-28T09:33:45.853Z,55.41
2022-09-28T09:37:22.325Z,57.32
2022-09-28T09:40:43.916Z,56.67
2022-09-28T09:44:14.785Z,57.45
2022-09-28T09:47:41.457Z,54.85
2022-09-28T09:51:38.492Z,55.27
2022-09-28T09:55:08.596Z,54.10
2022-09-28T09:58:44.779Z,53.19
2022-09-28T10:02:23.818Z,53.82
2022-09-28T10:05:54.640Z,53.85
2022-09-28T10:09:30.780Z,53.26
2022-09-28T10:12:56.515Z,53.50
2022-09-28T10:16:19.216Z,56.10
2022-09-28T10:19:42.003Z,56.94
2022-09-28T10:23:06.340Z,57.79
2022-09-28T10:26:52.614Z,57.84
2022-09-28T10:30:19.434Z,54.20
2022-09-28T10:33:43.271Z,54.07
2022-09-28T10:37:10.379Z,53.79
2022-09-28T10:40:45.679Z,52.41
2022-09-28T10:44:16.305Z,52.29
2022-09-28T10:47:38.192Z,53.34
2022-09-28T10:51:07.695Z,53.09
2022-09-28T10:54:31.748Z,55.69
2022-09-28T10:57:57.814Z,56.34
2022-09-28T11:01:24.372Z,56.35
2022-09-28T11:04:53.154Z,57.46
2022-09-28T11:08:25.304Z,57.82
2022-09-28T11:11:49.465Z,54.65
2022-09-28T11:15:20.793Z,55.37
2022-09-28T11:18:42.315Z,55.64
2022-09-28T11:22:21.017Z,53.83
2022-09-28T11:25:55.390Z,54.45
2022-09-28T11:29:23.981Z,53.13
2022-09-28T11:32:45.699Z,50.38
2022-09-28T11:36:17.136Z,51.60
2022-09-28T11:39:51.864Z,48.44
2022-09-28T11:43:25.480Z,48.75
2022-09-28T11:47:25.414Z,50.25
2022-09-28T11:50:53.500Z,49.90
2022-09-28T11:54:23.647Z,48.95
2022-09-28T11:57:48.654Z,49.56
2022-09-28T12:01:23.916Z,48.62
2022-09-28T12:05:07.871Z,50.10
2022-09-28T12:08:40.026Z,49.93
2022-09-28T12:12:10.483Z,50.17
2022-09-28T12:19:50.853Z,52.14
2022-09-28T12:23:30.015Z,50.28
2022-09-28T12:27:23.190Z,50.91
2022-09-28T12:30:49.625Z,51.35
2022-09-28T12:34:11.630Z,51.04
2022-09-28T12:37:55.033Z,50.62
2022-09-28T12:41:31.979Z,52.46
2022-09-28T12:45:20.704Z,52.39
2022-09-28T12:48:42.303Z,52.43
2022-09-28T12:52:19.716Z,53.52
2022-09-28T12:56:16.754Z,53.62
2022-09-28T12:59:49.502Z,51.98
2022-09-28T13:03:45.833Z,50.85
2022-09-28T13:07:13.308Z,51.03
2022-09-28T13:10:53.625Z,50.78
2022-09-28T13:14:44.694Z,50.15
2022-09-28T13:18:18.607Z,50.20
2022-09-28T13:21:46.069Z,50.37
2022-09-28T13:25:16.990Z,50.57
2022-09-28T13:28:43.128Z,50.16
2022-09-28T13:32:08.179Z,48.90
2022-09-28T13:35:35.062Z,48.77
2022-09-28T13:38:59.477Z,49.37
2022-09-28T13:42:42.253Z,49.72
2022-09-28T13:46:13.019Z,48.51
2022-09-28T13:49:56.388Z,48.16
2022-09-28T13:53:35.501Z,48.08
2022-09-28T13:57:11.437Z,48.08
2022-09-28T14:00:47.501Z,48.03
2022-09-28T14:04:36.899Z,48.69
2022-09-28T14:08:11.362Z,49.83
2022-09-28T14:11:40.187Z,53.25
2022-09-28T14:15:06.989Z,49.96
2022-09-28T14:18:33.826Z,50.21
2022-09-28T14:22:33.997Z,49.99
2022-09-28T14:26:32.935Z,49.24
2022-09-28T14:30:11.665Z,49.24
2022-09-28T14:33:38.812Z,49.92
2022-09-28T14:37:22.322Z,51.00
2022-09-28T14:41:09.565Z,51.86
2022-09-28T14:45:06.374Z,51.13
2022-09-28T14:48:55.658Z,50.67
2022-09-28T14:52:38.133Z,49.36
2022-09-28T14:56:07.706Z,50.19
2022-09-28T14:59:36.001Z,50.95
2022-09-28T15:03:07.799Z,50.41
2022-09-28T15:06:46.211Z,51.91
2022-09-28T15:10:27.509Z,52.00
2022-09-28T15:13:53.421Z,52.67
2022-09-28T15:17:22.535Z,54.19
2022-09-28T15:20:49.212Z,54.18
2022-09-28T15:24:30.615Z,51.93
2022-09-28T15:27:54.979Z,56.33
2022-09-28T15:31:22.810Z,56.27
2022-09-28T15:34:55.855Z,55.76
2022-09-28T15:38:17.624Z,50.74
2022-09-28T15:41:39.884Z,52.48
2022-09-28T15:45:06.157Z,52.39
2022-09-28T15:48:37.393Z,53.49
2022-09-28T15:52:02.999Z,53.82
2022-09-28T15:55:52.892Z,54.20
2022-09-28T15:59:14.331Z,54.39
2022-09-28T16:02:36.123Z,55.32
2022-09-28T16:05:57.602Z,59.86
2022-09-28T16:10:04.837Z,60.21
2022-09-28T16:13:29.389Z,58.19
2022-09-28T16:16:55.368Z,58.76
2022-09-28T16:20:23.789Z,56.14
2022-09-28T16:23:51.543Z,58.61
2022-09-28T16:27:45.771Z,59.54
2022-09-28T16:31:13.650Z,53.06
2022-09-28T16:34:39.702Z,53.90
2022-09-28T16:38:19.597Z,53.95
2022-09-28T16:41:44.187Z,55.06
2022-09-28T16:45:07.750Z,55.12
2022-09-28T16:48:32.160Z,55.61
2022-09-28T16:51:59.572Z,55.18
2022-09-28T16:55:40.528Z,55.45
2022-09-28T16:59:05.890Z,56.05
2022-09-28T17:02:46.149Z,56.39
2022-09-28T17:06:10.613Z,56.52
2022-09-28T17:09:36.619Z,57.29
2022-09-28T17:12:59.133Z,62.04
2022-09-28T17:16:42.990Z,57.97
2022-09-28T17:20:20.342Z,58.40
2022-09-28T17:23:46.695Z,59.27
2022-09-28T17:27:15.837Z,63.08
2022-09-28T17:30:38.992Z,58.82
2022-09-28T17:34:00.742Z,58.55
2022-09-28T17:37:24.512Z,59.31
2022-09-28T17:40:48.576Z,59.19
2022-09-28T17:44:16.214Z,60.19
2022-09-28T17:47:38.200Z,62.06
2022-09-28T17:51:01.974Z,61.09
2022-09-28T17:54:25.805Z,62.31
2022-09-28T17:57:48.057Z,62.77
2022-09-28T18:01:12.617Z,64.15
2022-09-28T18:04:51.374Z,65.79
2022-09-28T18:08:17.296Z,66.90
2022-09-28T18:11:42.508Z,67.49
2022-09-28T18:15:04.306Z,69.16
2022-09-28T18:18:28.419Z,69.21
2022-09-28T18:21:50.264Z,70.13
2022-09-28T18:25:14.061Z,70.66
2022-09-28T18:28:37.876Z,71.26
2022-09-28T18:32:01.867Z,72.03
2022-09-28T18:35:23.765Z,72.67
2022-09-28T18:38:45.343Z,72.74
2022-09-28T18:42:10.392Z,73.16
2022-09-28T18:45:35.763Z,73.01
2022-09-28T18:48:57.785Z,73.66
2022-09-28T18:52:19.373Z,74.16
2022-09-28T18:55:45.554Z,75.23
2022-09-28T18:59:15.198Z,74.81
2022-09-28T19:02:39.348Z,75.83
2022-09-28T19:06:05.737Z,76.08
2022-09-28T19:09:30.289Z,76.15
2022-09-28T19:12:52.107Z,77.09
2022-09-28T19:16:20.669Z,75.90
2022-09-28T19:19:42.775Z,75.33
2022-09-28T19:23:04.335Z,75.18
2022-09-28T19:26:27.807Z,75.31
2022-09-28T19:29:51.750Z,76.07
2022-09-28T19:33:13.248Z,76.48
2022-09-28T19:36:35.253Z,75.47
2022-09-28T19:39:56.797Z,76.68
2022-09-28T19:43:21.408Z,77.96
2022-09-28T19:46:43.210Z,80.38
2022-09-28T19:50:05.232Z,79.67
2022-09-28T19:53:29.496Z,78.97
2022-09-28T19:56:52.716Z,78.74
2022-09-28T20:00:16.822Z,78.67
2022-09-28T20:03:38.913Z,78.17
2022-09-28T20:07:00.769Z,78.23
2022-09-28T20:10:24.732Z,77.95
2022-09-28T20:13:46.809Z,78.81
2022-09-28T20:17:11.716Z,79.05
2022-09-28T20:20:33.241Z,79.05
2022-09-28T20:23:56.309Z,79.05
2022-09-28T20:27:17.781Z,78.99
2022-09-28T20:30:39.731Z,79.50
2022-09-28T20:34:01.296Z,79.60
2022-09-28T20:37:26.556Z,80.58
2022-09-28T20:40:50.583Z,81.51
2022-09-28T20:44:14.748Z,80.10
2022-09-28T20:47:45.568Z,80.22
2022-09-28T20:51:11.369Z,79.95
2022-09-28T20:54:38.359Z,79.44
2022-09-28T20:58:08.157Z,79.84
2022-09-28T21:01:33.671Z,80.23
2022-09-28T21:04:58.613Z,80.10
2022-09-28T21:08:25.665Z,79.59
2022-09-28T21:11:49.679Z,80.06
2022-09-28T21:15:11.233Z,79.85
2022-09-28T21:18:32.766Z,80.44
2022-09-28T21:21:54.482Z,80.79
2022-09-28T21:25:16.040Z,80.32
2022-09-28T21:28:38.632Z,80.63
2022-09-28T21:32:00.261Z,80.20
2022-09-28T21:35:21.770Z,80.27
2022-09-28T21:38:43.947Z,81.60
2022-09-28T21:42:05.695Z,80.80
2022-09-28T21:45:29.446Z,81.40
2022-09-28T21:48:53.433Z,81.66
2022-09-28T21:52:15.005Z,81.03
2022-09-28T21:55:39.030Z,80.95
2022-09-28T21:59:01.360Z,80.95
2022-09-28T22:02:23.370Z,80.17
2022-09-28T22:05:50.391Z,80.20
2022-09-28T22:09:11.917Z,81.54
2022-09-28T22:12:33.506Z,80.77
2022-09-28T22:15:57.757Z,80.94
2022-09-28T22:19:22.287Z,80.88
2022-09-28T22:22:53.413Z,80.58
2022-09-28T22:26:21.656Z,80.24
2022-09-28T22:29:43.174Z,79.87
2022-09-28T22:33:07.732Z,79.41
2022-09-28T22:36:32.159Z,80.02
2022-09-28T22:39:56.198Z,79.56
2022-09-28T22:43:18.855Z,79.09
2022-09-28T22:46:43.511Z,79.53
2022-09-28T22:50:07.799Z,79.59
2022-09-28T22:53:32.847Z,80.24
2022-09-28T22:56:54.364Z,80.64
2022-09-28T23:00:15.993Z,80.76
2022-09-28T23:03:40.544Z,81.49
2022-09-28T23:07:02.108Z,81.80
2022-09-28T23:10:25.676Z,81.98
2022-09-28T23:13:54.398Z,80.59
2022-09-28T23:17:18.533Z,80.50
2022-09-28T23:20:40.062Z,80.99
2022-09-28T23:24:01.868Z,81.59
2022-09-28T23:27:25.914Z,82.43
2022-09-28T23:30:47.995Z,82.69
2022-09-28T23:34:13.408Z,83.60
2022-09-28T23:37:40.685Z,83.80
2022-09-28T23:41:02.308Z,84.07
2022-09-28T23:44:23.877Z,83.74
2022-09-28T23:47:45.692Z,81.88
2022-09-28T23:51:07.871Z,81.94
2022-09-28T23:54:34.148Z,82.19
2022-09-28T23:58:00.485Z,82.28
